Time;durP1;ratioP1;P1;durP2;ratioP2;P2;SDS_P1;SDS_P2;PMS_P1;PMS_P2;Temp;Humidity;BMP_temperature;BMP_pressure;BME280_temperature;BME280_humidity;BME280_pressure;Samples;Min_cycle;Max_cycle;Signal;HPM_P1;HPM_P2
2021/03/12 00:00:54;;;;;;;5.07;1.70;;;8.60;80.50;;;;;;2064591;28;20057;-72
2021/03/12 00:01:55;;;;;;;4.45;1.70;;;8.60;80.50;;;;;;2064707;28;20374;-73
2021/03/12 00:02:55;;;;;;;5.35;1.70;;;8.60;80.50;;;;;;2064893;28;20026;-72
2021/03/12 00:03:56;;;;;;;3.83;1.75;;;8.60;80.60;;;;;;2072176;28;20496;-72
2021/03/12 00:04:56;;;;;;;5.65;1.67;;;8.50;80.40;;;;;;2064135;28;20026;-73
2021/03/12 00:05:59;;;;;;;3.78;1.75;;;8.50;80.40;;;;;;2064313;28;20054;-74
2021/03/12 00:07:00;;;;;;;3.90;1.50;;;8.60;80.00;;;;;;2064934;28;20034;-74
2021/03/12 00:08:01;;;;;;;5.03;1.60;;;8.60;79.70;;;;;;2072352;28;20112;-73
2021/03/12 00:09:02;;;;;;;4.03;1.52;;;8.60;79.80;;;;;;2071813;28;20108;-73
2021/03/12 00:10:15;;;;;;;3.17;1.40;;;8.60;79.60;;;;;;2064746;28;20031;-73
2021/03/12 00:11:17;;;;;;;4.72;1.45;;;8.60;79.50;;;;;;2071948;28;20156;-74
2021/03/12 00:12:18;;;;;;;5.07;1.80;;;8.50;79.40;;;;;;2072329;28;20040;-73
2021/03/12 00:13:19;;;;;;;3.78;1.40;;;8.60;78.90;;;;;;2072358;28;20041;-74
2021/03/12 00:14:20;;;;;;;6.13;1.55;;;8.60;79.20;;;;;;2072281;28;20022;-74
2021/03/12 00:15:21;;;;;;;4.40;1.40;;;8.60;79.10;;;;;;2064873;28;20030;-74
2021/03/12 00:16:22;;;;;;;3.17;1.42;;;8.60;78.90;;;;;;2064841;28;20092;-73
2021/03/12 00:17:23;;;;;;;4.47;1.30;;;8.60;78.60;;;;;;2072230;28;20088;-73
2021/03/12 00:18:40;;;;;;;5.80;1.60;;;8.60;78.60;;;;;;2072373;28;20033;-74
2021/03/12 00:19:41;;;;;;;5.25;1.90;;;8.60;78.90;;;;;;2064442;28;20018;-73
2021/03/12 00:20:42;;;;;;;3.97;2.00;;;8.60;79.70;;;;;;2055805;28;20118;-74
2021/03/12 00:21:42;;;;;;;3.35;2.00;;;8.60;80.10;;;;;;2056240;28;20031;-74
2021/03/12 00:22:44;;;;;;;4.30;2.05;;;8.60;80.90;;;;;;2055941;28;20122;-74
2021/03/12 00:23:45;;;;;;;3.85;2.10;;;8.60;81.40;;;;;;2056140;28;20027;-74
2021/03/12 00:24:45;;;;;;;3.67;2.40;;;8.60;82.20;;;;;;2048337;29;20475;-72
2021/03/12 00:25:47;;;;;;;6.40;2.70;;;8.50;83.20;;;;;;2056225;28;20018;-73
2021/03/12 00:26:48;;;;;;;4.90;2.60;;;8.40;84.10;;;;;;2056320;28;20022;-73
2021/03/12 00:27:49;;;;;;;4.40;2.42;;;8.30;85.00;;;;;;2064543;28;20482;-73
2021/03/12 00:28:52;;;;;;;4.95;2.72;;;8.20;85.50;;;;;;2063710;28;20053;-73
2021/03/12 00:29:52;;;;;;;6.22;3.00;;;8.20;86.40;;;;;;2065323;28;20026;-73
2021/03/12 00:30:53;;;;;;;4.72;2.83;;;8.10;86.80;;;;;;2064170;28;20046;-73
2021/03/12 00:31:54;;;;;;;5.93;3.72;;;8.10;87.40;;;;;;2064189;28;20105;-72
2021/03/12 00:32:55;;;;;;;5.43;3.50;;;8.00;87.90;;;;;;2064839;28;20033;-73
2021/03/12 00:33:55;;;;;;;6.10;3.40;;;8.00;88.40;;;;;;2064665;28;20018;-71
2021/03/12 00:34:56;;;;;;;6.20;3.80;;;8.00;88.70;;;;;;2072090;28;20064;-72
2021/03/12 00:35:56;;;;;;;7.03;3.78;;;8.00;89.20;;;;;;2064208;28;20086;-73
2021/03/12 00:36:57;;;;;;;5.30;3.70;;;7.90;89.50;;;;;;2056105;28;20031;-73
2021/03/12 00:37:58;;;;;;;6.55;3.85;;;7.90;90.00;;;;;;2064291;28;20031;-72
2021/03/12 00:38:58;;;;;;;7.20;3.80;;;7.80;90.10;;;;;;2064786;28;20053;-73
2021/03/12 00:39:59;;;;;;;5.78;3.78;;;7.70;90.20;;;;;;2066827;28;20032;-73
2021/03/12 00:41:02;;;;;;;5.45;4.05;;;7.70;90.40;;;;;;2066402;28;20030;-72
2021/03/12 00:42:09;;;;;;;6.50;4.00;;;7.70;90.50;;;;;;2066039;28;20149;-74
2021/03/12 00:43:11;;;;;;;9.43;4.05;;;7.70;90.60;;;;;;2057908;28;20027;-74
2021/03/12 00:44:13;;;;;;;8.07;3.60;;;7.70;90.60;;;;;;2058005;28;20063;-73
2021/03/12 00:45:21;;;;;;;5.10;3.63;;;7.60;90.60;;;;;;2059895;28;20097;-73
2021/03/12 00:46:25;;;;;;;5.82;3.60;;;7.60;90.60;;;;;;2066217;28;20462;-74
2021/03/12 00:47:25;;;;;;;6.90;3.50;;;7.70;90.50;;;;;;2066751;28;20034;-73
2021/03/12 00:48:26;;;;;;;5.63;3.30;;;7.70;90.80;;;;;;2067155;28;20482;-74
2021/03/12 00:49:29;;;;;;;5.30;3.40;;;7.60;90.50;;;;;;2074309;28;20129;-74
2021/03/12 00:50:35;;;;;;;5.60;3.65;;;7.60;90.50;;;;;;2073312;28;20045;-74
2021/03/12 00:51:35;;;;;;;6.20;3.38;;;7.60;90.50;;;;;;2066732;28;20405;-74
2021/03/12 00:52:41;;;;;;;4.53;3.40;;;7.60;90.50;;;;;;2066290;28;20030;-73
2021/03/12 00:53:42;;;;;;;5.97;3.60;;;7.60;90.60;;;;;;2058300;28;20490;-73
2021/03/12 00:54:43;;;;;;;4.82;3.47;;;7.60;90.60;;;;;;2065996;28;20049;-74
2021/03/12 00:55:53;;;;;;;6.03;3.35;;;7.60;90.60;;;;;;2060175;28;20545;-74
2021/03/12 00:56:55;;;;;;;7.05;3.63;;;7.60;90.60;;;;;;2066537;28;20383;-73
2021/03/12 00:57:58;;;;;;;7.20;4.15;;;7.60;90.80;;;;;;2066799;28;20589;-73
2021/03/12 00:59:00;;;;;;;5.93;3.70;;;7.60;90.70;;;;;;2065571;28;20042;-73
2021/03/12 01:00:07;;;;;;;5.05;3.65;;;7.50;90.70;;;;;;2066196;28;20466;-73
2021/03/12 01:01:12;;;;;;;4.60;3.50;;;7.50;90.80;;;;;;2066040;28;20025;-73
2021/03/12 01:02:15;;;;;;;5.55;3.67;;;7.50;90.80;;;;;;2066945;28;20022;-72
2021/03/12 01:03:17;;;;;;;5.80;3.97;;;7.50;91.00;;;;;;2066548;28;20429;-73
2021/03/12 01:04:25;;;;;;;6.40;3.78;;;7.50;91.00;;;;;;2059928;28;20034;-73
2021/03/12 01:05:34;;;;;;;6.18;3.40;;;7.50;91.00;;;;;;2061405;28;20085;-72
2021/03/12 01:06:36;;;;;;;4.18;3.45;;;7.50;91.00;;;;;;2059858;28;20494;-72
2021/03/12 01:07:40;;;;;;;4.70;3.50;;;7.50;91.00;;;;;;2059541;28;20054;-72
2021/03/12 01:08:41;;;;;;;5.53;3.53;;;7.50;91.00;;;;;;2060021;28;20058;-73
2021/03/12 01:09:43;;;;;;;6.40;3.70;;;7.50;91.00;;;;;;2075066;28;20033;-73
2021/03/12 01:10:44;;;;;;;7.03;3.95;;;7.50;91.10;;;;;;2066621;28;20113;-73
2021/03/12 01:11:45;;;;;;;8.13;3.90;;;7.50;91.00;;;;;;2066789;28;20121;-71
2021/03/12 01:12:48;;;;;;;6.43;3.72;;;7.50;90.90;;;;;;2058365;28;20038;-72
2021/03/12 01:13:49;;;;;;;6.15;3.65;;;7.50;90.80;;;;;;2066300;28;20082;-72
2021/03/12 01:14:51;;;;;;;6.13;3.92;;;7.50;90.90;;;;;;2074704;28;20022;-73
2021/03/12 01:15:53;;;;;;;5.50;3.55;;;7.40;91.00;;;;;;2068020;28;20393;-72
2021/03/12 01:17:02;;;;;;;6.43;3.75;;;7.40;91.00;;;;;;2070843;28;20076;-73
2021/03/12 01:18:04;;;;;;;7.28;3.72;;;7.40;91.10;;;;;;2067693;28;20098;-74
2021/03/12 01:19:06;;;;;;;6.53;3.83;;;7.50;91.10;;;;;;2057264;28;20031;-74
2021/03/12 01:20:15;;;;;;;6.85;4.07;;;7.50;91.10;;;;;;2065131;28;20398;-73
2021/03/12 01:21:16;;;;;;;6.90;3.80;;;7.50;91.20;;;;;;2065605;28;20030;-74
2021/03/12 01:22:17;;;;;;;4.75;3.50;;;7.50;91.20;;;;;;2065077;28;20030;-72
2021/03/12 01:23:18;;;;;;;4.80;3.30;;;7.50;91.20;;;;;;2065137;28;20034;-74
2021/03/12 01:24:19;;;;;;;5.70;3.60;;;7.50;91.20;;;;;;2064994;28;20077;-74
2021/03/12 01:25:31;;;;;;;6.10;3.63;;;7.50;91.20;;;;;;2058281;28;20113;-73
2021/03/12 01:26:32;;;;;;;4.53;3.25;;;7.40;91.20;;;;;;2065130;28;20022;-74
2021/03/12 01:27:41;;;;;;;5.75;3.67;;;7.50;91.20;;;;;;2065139;28;20027;-72
2021/03/12 01:28:45;;;;;;;6.25;3.53;;;7.50;91.10;;;;;;2056891;28;20031;-72
2021/03/12 01:29:46;;;;;;;4.97;3.35;;;7.50;91.10;;;;;;2056979;28;20517;-74
2021/03/12 01:30:59;;;;;;;6.95;3.38;;;7.50;91.10;;;;;;2059909;28;20037;-73
2021/03/12 01:32:12;;;;;;;5.85;3.22;;;7.50;91.00;;;;;;2065002;28;20472;-73
2021/03/12 01:33:20;;;;;;;5.70;3.20;;;7.50;91.00;;;;;;2058061;28;20038;-72
2021/03/12 01:34:21;;;;;;;5.88;3.20;;;7.40;91.00;;;;;;2064982;28;20035;-72
2021/03/12 01:35:23;;;;;;;6.90;3.38;;;7.40;90.60;;;;;;2065102;28;20039;-73
2021/03/12 01:36:24;;;;;;;9.80;3.40;;;7.50;90.30;;;;;;2065004;28;20026;-73
2021/03/12 01:37:36;;;;;;;5.43;2.70;;;7.50;90.10;;;;;;2064911;28;20077;-72
2021/03/12 01:38:38;;;;;;;5.15;2.40;;;7.40;88.60;;;;;;2057024;28;20030;-72
2021/03/12 01:39:39;;;;;;;4.50;2.30;;;7.50;88.80;;;;;;2064451;28;20036;-74
2021/03/12 01:40:47;;;;;;;4.50;2.08;;;7.50;88.10;;;;;;2064510;28;20401;-74
2021/03/12 01:41:48;;;;;;;6.55;2.28;;;7.50;87.50;;;;;;2064992;28;20084;-72
2021/03/12 01:42:56;;;;;;;4.38;2.13;;;7.50;87.30;;;;;;2065312;28;20474;-73
2021/03/12 01:43:56;;;;;;;8.38;2.42;;;7.50;87.20;;;;;;2065581;28;20148;-74
2021/03/12 01:45:06;;;;;;;4.13;2.17;;;7.50;87.30;;;;;;2064895;28;20173;-73
2021/03/12 01:46:06;;;;;;;3.53;2.00;;;7.60;86.00;;;;;;2057478;28;20046;-73
2021/03/12 01:47:07;;;;;;;6.43;1.90;;;7.60;86.10;;;;;;2064933;28;20022;-72
2021/03/12 01:48:11;;;;;;;3.38;1.80;;;7.60;86.10;;;;;;2073137;28;20038;-71
2021/03/12 01:49:11;;;;;;;4.05;1.92;;;7.60;85.20;;;;;;2064572;28;20022;-72
2021/03/12 01:50:12;;;;;;;5.43;2.00;;;7.70;85.10;;;;;;2064539;28;20026;-72
2021/03/12 01:51:15;;;;;;;7.50;3.10;;;7.70;84.90;;;;;;2072392;28;20613;-72
2021/03/12 01:52:18;;;;;;;6.32;3.50;;;7.80;86.10;;;;;;2065403;28;20113;-72
2021/03/12 01:53:21;;;;;;;6.28;3.83;;;7.80;86.90;;;;;;2065976;28;20069;-73
2021/03/12 01:54:24;;;;;;;9.23;4.43;;;7.80;88.40;;;;;;2065151;28;20081;-72
2021/03/12 01:55:34;;;;;;;9.13;4.95;;;7.80;90.10;;;;;;2066761;28;20054;-71
2021/03/12 01:56:38;;;;;;;8.80;5.40;;;7.70;90.90;;;;;;2065014;28;20117;-72
2021/03/12 01:57:50;;;;;;;9.85;6.35;;;7.60;91.80;;;;;;2066979;28;20027;-72
2021/03/12 01:59:05;;;;;;;11.55;6.68;;;7.50;92.60;;;;;;2064702;28;20034;-72
2021/03/12 02:00:24;;;;;;;7.85;5.47;;;7.30;93.20;;;;;;2067174;28;20137;-73
2021/03/12 02:01:27;;;;;;;5.57;4.80;;;7.20;93.00;;;;;;2064586;28;20065;-73
2021/03/12 02:02:37;;;;;;;7.10;4.70;;;7.00;92.90;;;;;;2057656;28;20019;-72
2021/03/12 02:03:47;;;;;;;7.03;4.82;;;6.90;93.10;;;;;;2058315;28;20526;-73
2021/03/12 02:04:57;;;;;;;6.78;5.05;;;6.70;93.30;;;;;;2058085;28;20027;-72
2021/03/12 02:05:58;;;;;;;6.75;4.80;;;6.60;93.80;;;;;;2064962;28;20059;-71
2021/03/12 02:07:00;;;;;;;6.85;4.80;;;6.60;94.10;;;;;;2072826;28;20017;-72
2021/03/12 02:08:01;;;;;;;5.43;4.68;;;6.50;94.40;;;;;;2072905;28;20022;-71
2021/03/12 02:09:08;;;;;;;4.75;4.30;;;6.50;94.40;;;;;;2072384;28;20087;-72
2021/03/12 02:10:19;;;;;;;6.68;4.78;;;6.40;94.20;;;;;;2064751;28;20057;-72
2021/03/12 02:11:24;;;;;;;5.18;4.40;;;6.50;94.40;;;;;;2057634;28;20525;-72
2021/03/12 02:12:36;;;;;;;4.72;4.22;;;6.40;94.50;;;;;;2064903;28;20041;-71
2021/03/12 02:15:46;;;;;;;5.35;4.32;;;6.30;94.70;;;;;;2064871;28;20057;-72
2021/03/12 02:16:55;;;;;;;5.43;4.25;;;6.30;94.90;;;;;;2072872;28;20038;-71
2021/03/12 02:18:06;;;;;;;4.88;4.00;;;6.30;95.00;;;;;;2064697;28;20045;-72
2021/03/12 02:19:55;;;;;;;7.05;4.43;;;6.20;95.10;;;;;;2064762;28;20110;-71
2021/03/12 02:21:11;;;;;;;5.22;4.07;;;6.20;95.10;;;;;;2072245;28;20040;-70
2021/03/12 02:22:13;;;;;;;5.35;4.10;;;6.20;95.20;;;;;;2064631;28;20120;-72
2021/03/12 02:23:23;;;;;;;4.50;3.78;;;6.20;95.30;;;;;;2056048;28;20034;-72
2021/03/12 02:24:37;;;;;;;;;;;6.20;95.50;;;;;;2064972;28;20022;-72
2021/03/12 02:25:55;;;;;;;6.53;4.18;;;6.20;95.60;;;;;;2058945;28;20017;-71
2021/03/12 02:27:01;;;;;;;5.80;4.60;;;6.20;95.80;;;;;;2058160;28;20037;-72
2021/03/12 02:28:03;;;;;;;6.00;4.32;;;6.20;95.80;;;;;;2065625;28;20499;-72
2021/03/12 02:29:14;;;;;;;5.53;4.60;;;6.10;95.90;;;;;;2072872;28;20026;-72
2021/03/12 02:30:16;;;;;;;6.90;4.85;;;6.10;95.90;;;;;;2064805;28;20037;-71
2021/03/12 02:31:22;;;;;;;4.82;4.32;;;6.10;96.00;;;;;;2056727;28;20070;-72
2021/03/12 02:32:38;;;;;;;5.75;4.50;;;6.10;96.10;;;;;;2064623;28;20066;-70
2021/03/12 02:33:43;;;;;;;5.07;4.53;;;6.10;96.20;;;;;;2064318;28;20037;-72
2021/03/12 02:34:51;;;;;;;5.00;4.53;;;6.10;96.30;;;;;;2064746;28;20049;-71
2021/03/12 02:35:59;;;;;;;5.05;4.38;;;6.10;96.40;;;;;;2064524;28;20517;-74
2021/03/12 02:37:09;;;;;;;;;;;6.00;96.50;;;;;;2058344;28;20030;-74
2021/03/12 02:38:13;;;;;;;6.80;4.63;;;6.00;96.50;;;;;;2057067;28;19912;-74
2021/03/12 02:39:22;;;;;;;5.72;4.50;;;6.00;96.60;;;;;;2056740;28;20029;-73
2021/03/12 02:40:24;;;;;;;5.28;4.53;;;6.00;96.70;;;;;;2064673;28;20054;-73
2021/03/12 02:41:32;;;;;;;5.32;4.60;;;6.00;96.80;;;;;;2065092;28;20561;-74
2021/03/12 02:42:38;;;;;;;6.78;5.07;;;6.00;96.90;;;;;;2064452;28;20019;-71
2021/03/12 02:43:39;;;;;;;7.20;5.30;;;6.00;96.90;;;;;;2056131;28;20027;-72
2021/03/12 02:44:42;;;;;;;6.68;4.90;;;6.00;96.90;;;;;;2064244;28;20026;-72
2021/03/12 02:45:44;;;;;;;6.68;4.93;;;6.00;96.90;;;;;;2064434;28;20127;-74
2021/03/12 02:46:58;;;;;;;6.38;4.70;;;6.00;97.00;;;;;;2057482;28;20030;-73
2021/03/12 02:48:00;;;;;;;7.68;4.90;;;6.00;97.10;;;;;;2065292;28;20053;-74
2021/03/12 02:49:06;;;;;;;7.57;4.57;;;6.00;97.00;;;;;;2063781;28;20405;-74
2021/03/12 02:50:09;;;;;;;5.97;4.00;;;6.00;96.20;;;;;;2056499;28;20042;-73
2021/03/12 02:51:11;;;;;;;7.78;3.40;;;6.00;95.30;;;;;;2064213;28;20058;-72
2021/03/12 02:52:12;;;;;;;7.30;3.10;;;6.00;95.00;;;;;;2064320;28;20053;-73
2021/03/12 02:53:13;;;;;;;5.63;2.60;;;6.00;94.60;;;;;;2063988;28;20030;-74
2021/03/12 02:54:15;;;;;;;3.75;2.40;;;6.10;93.80;;;;;;2056323;28;20046;-73
2021/03/12 02:55:20;;;;;;;6.07;2.50;;;6.20;93.50;;;;;;2049224;28;20478;-73
2021/03/12 02:56:35;;;;;;;5.85;2.08;;;6.20;93.20;;;;;;2058203;28;20023;-74
2021/03/12 02:57:38;;;;;;;5.65;2.05;;;6.30;92.90;;;;;;2066300;28;20580;-73
2021/03/12 02:58:41;;;;;;;3.63;1.80;;;6.40;92.10;;;;;;2072245;28;20024;-73
2021/03/12 02:59:42;;;;;;;6.07;2.00;;;6.50;91.60;;;;;;2064505;28;20056;-73
2021/03/12 03:01:04;;;;;;;6.47;2.08;;;6.50;91.40;;;;;;2064015;28;20038;-73
2021/03/12 03:02:27;;;;;;;7.40;2.00;;;6.60;91.10;;;;;;2064755;28;20026;-73
2021/03/12 03:03:42;;;;;;;5.07;1.67;;;6.70;90.70;;;;;;2063908;28;20023;-73
2021/03/12 03:05:12;;;;;;;5.40;1.88;;;6.80;89.10;;;;;;2042102;29;20035;-73
2021/03/12 03:06:19;;;;;;;5.05;1.98;;;6.90;88.40;;;;;;2040148;29;20039;-74
2021/03/12 03:07:20;;;;;;;4.35;1.60;;;6.90;88.40;;;;;;2072281;28;20021;-73
2021/03/12 03:08:21;;;;;;;4.10;1.70;;;6.90;88.50;;;;;;2072501;28;20029;-73
2021/03/12 03:09:25;;;;;;;4.63;1.70;;;7.00;88.10;;;;;;2064960;28;20030;-74
2021/03/12 03:10:26;;;;;;;5.22;1.70;;;7.00;87.50;;;;;;2064214;28;20156;-73
2021/03/12 03:11:27;;;;;;;4.75;1.70;;;7.00;87.80;;;;;;2055923;28;20023;-73
2021/03/12 03:12:28;;;;;;;5.90;1.65;;;7.00;87.80;;;;;;2064293;28;20553;-73
2021/03/12 03:13:33;;;;;;;4.90;1.70;;;7.10;86.60;;;;;;2055847;28;20022;-73
2021/03/12 03:14:34;;;;;;;6.80;1.90;;;7.10;86.70;;;;;;2064091;28;20469;-74
2021/03/12 03:15:40;;;;;;;8.10;2.00;;;7.10;85.60;;;;;;2056496;28;20023;-73
2021/03/12 03:16:47;;;;;;;4.78;1.92;;;7.10;86.10;;;;;;2056954;28;20050;-74
2021/03/12 03:17:51;;;;;;;5.43;2.10;;;7.20;86.40;;;;;;2056678;28;20060;-73
2021/03/12 03:18:57;;;;;;;4.95;1.65;;;7.10;85.70;;;;;;2057093;28;20087;-73
2021/03/12 03:19:59;;;;;;;6.43;1.95;;;7.20;85.80;;;;;;2056405;28;20054;-73
2021/03/12 03:21:02;;;;;;;5.47;1.77;;;7.20;86.70;;;;;;2055866;28;20058;-74
2021/03/12 03:22:04;;;;;;;6.18;2.00;;;7.20;86.70;;;;;;2056274;28;20054;-74
2021/03/12 03:23:05;;;;;;;5.90;2.00;;;7.20;86.80;;;;;;2064338;28;20126;-73
2021/03/12 03:24:06;;;;;;;4.35;1.73;;;7.10;86.00;;;;;;2064382;28;20038;-74
2021/03/12 03:25:09;;;;;;;7.97;2.08;;;7.10;86.20;;;;;;2064143;28;20019;-74
2021/03/12 03:26:10;;;;;;;5.00;1.77;;;7.20;86.90;;;;;;2064338;28;20080;-74
2021/03/12 03:27:15;;;;;;;4.82;1.80;;;7.20;86.60;;;;;;2072162;28;20030;-75
2021/03/12 03:28:16;;;;;;;7.07;1.83;;;7.20;86.30;;;;;;2072236;28;20026;-75
2021/03/12 03:29:17;;;;;;;3.22;1.80;;;7.20;85.80;;;;;;2064836;28;20470;-73
2021/03/12 03:30:18;;;;;;;6.60;1.88;;;7.20;86.30;;;;;;2064218;28;20027;-74
2021/03/12 03:31:28;;;;;;;;;;;7.20;86.30;;;;;;2057674;28;20034;-74
2021/03/12 03:32:29;;;;;;;4.18;1.70;;;7.20;86.30;;;;;;2064179;28;19910;-73
2021/03/12 03:33:32;;;;;;;4.68;2.05;;;7.20;87.00;;;;;;2063570;28;20033;-74
2021/03/12 03:34:35;;;;;;;6.20;2.10;;;7.20;87.20;;;;;;2056361;28;20541;-74
2021/03/12 03:35:36;;;;;;;4.68;1.98;;;7.20;87.10;;;;;;2064238;28;20065;-74
2021/03/12 03:36:38;;;;;;;9.25;2.30;;;7.20;87.00;;;;;;2072216;28;20022;-75
2021/03/12 03:37:41;;;;;;;6.97;2.00;;;7.20;86.90;;;;;;2071964;28;20100;-73
2021/03/12 03:38:42;;;;;;;6.03;1.95;;;7.20;87.60;;;;;;2072249;28;20025;-73
2021/03/12 03:39:43;;;;;;;6.07;1.90;;;7.20;87.30;;;;;;2072086;28;20018;-75
2021/03/12 03:40:44;;;;;;;6.45;1.70;;;7.20;87.30;;;;;;2063812;28;20014;-74
2021/03/12 03:41:50;;;;;;;6.10;2.10;;;7.20;87.30;;;;;;2055901;28;20026;-74
2021/03/12 03:42:52;;;;;;;5.55;2.20;;;7.20;87.20;;;;;;2056671;28;20557;-74
2021/03/12 03:43:55;;;;;;;4.78;1.90;;;7.20;87.50;;;;;;2063705;28;20021;-74
2021/03/12 03:45:03;;;;;;;4.80;1.70;;;7.20;88.00;;;;;;2064270;28;20121;-74
2021/03/12 03:46:06;;;;;;;5.85;2.20;;;7.20;88.10;;;;;;2056394;28;20031;-74
2021/03/12 03:47:14;;;;;;;6.30;2.08;;;7.20;88.30;;;;;;2056967;28;20031;-74
2021/03/12 03:48:16;;;;;;;4.90;2.10;;;7.10;88.00;;;;;;2056375;28;20092;-74
2021/03/12 03:49:18;;;;;;;6.10;2.17;;;7.10;88.90;;;;;;2064062;28;20029;-74
2021/03/12 03:50:21;;;;;;;5.30;2.20;;;7.10;89.00;;;;;;2056333;28;20515;-74
2021/03/12 03:51:23;;;;;;;6.72;2.00;;;7.10;89.00;;;;;;2055835;28;20515;-74
2021/03/12 03:52:25;;;;;;;6.38;2.83;;;7.10;89.60;;;;;;2064106;28;20065;-74
2021/03/12 03:53:35;;;;;;;8.05;2.20;;;7.10;89.00;;;;;;2063555;28;20085;-74
2021/03/12 03:54:37;;;;;;;5.22;1.92;;;7.10;87.30;;;;;;2056299;28;20065;-72
2021/03/12 03:55:43;;;;;;;3.72;1.98;;;7.20;87.40;;;;;;2056865;28;20026;-74
2021/03/12 03:56:46;;;;;;;5.53;2.00;;;7.20;87.90;;;;;;2056303;28;20517;-74
2021/03/12 03:57:48;;;;;;;5.28;1.85;;;7.20;87.80;;;;;;2056064;28;20019;-74
2021/03/12 03:58:49;;;;;;;4.82;2.00;;;7.20;87.90;;;;;;2056161;28;20031;-74
2021/03/12 03:59:51;;;;;;;4.72;1.80;;;7.20;87.60;;;;;;2056067;28;20494;-74
2021/03/12 04:00:55;;;;;;;6.97;2.00;;;7.20;87.80;;;;;;2056059;28;20553;-72
2021/03/12 04:01:59;;;;;;;4.97;1.92;;;7.20;88.10;;;;;;2064336;28;20038;-74
2021/03/12 04:03:03;;;;;;;6.43;2.00;;;7.20;89.30;;;;;;2064071;28;20072;-74
2021/03/12 04:04:08;;;;;;;5.00;1.90;;;7.20;88.50;;;;;;2056204;28;20402;-74
2021/03/12 04:05:10;;;;;;;4.60;1.80;;;7.10;88.20;;;;;;2055992;28;20027;-74
2021/03/12 04:06:15;;;;;;;6.03;2.03;;;7.20;88.80;;;;;;2057351;28;20379;-74
2021/03/12 04:07:19;;;;;;;4.15;1.70;;;7.20;88.80;;;;;;2063998;28;20030;-74
2021/03/12 04:08:24;;;;;;;4.00;1.60;;;7.10;89.40;;;;;;2056750;28;20446;-74
2021/03/12 04:09:25;;;;;;;4.70;1.70;;;7.20;89.00;;;;;;2056166;28;20527;-74
2021/03/12 04:10:26;;;;;;;5.72;1.90;;;7.10;89.30;;;;;;2055966;28;20117;-73
2021/03/12 04:11:28;;;;;;;4.25;1.58;;;7.10;90.00;;;;;;2055739;28;20454;-74
2021/03/12 04:12:29;;;;;;;5.75;1.90;;;7.10;90.10;;;;;;2064214;28;20471;-71
2021/03/12 04:13:35;;;;;;;3.28;1.75;;;7.10;90.30;;;;;;2073100;28;20018;-73
2021/03/12 04:14:36;;;;;;;4.63;1.90;;;7.10;90.50;;;;;;2073617;28;20101;-73
2021/03/12 04:15:38;;;;;;;4.20;1.55;;;7.00;89.80;;;;;;2065692;28;20033;-74
2021/03/12 04:16:40;;;;;;;3.83;1.63;;;7.00;90.00;;;;;;2065803;28;20077;-74
2021/03/12 04:17:42;;;;;;;4.63;1.80;;;7.00;90.20;;;;;;2065646;28;20076;-74
2021/03/12 04:18:45;;;;;;;7.50;2.58;;;7.00;90.40;;;;;;2065772;28;20037;-74
2021/03/12 04:19:47;;;;;;;6.22;2.40;;;7.00;91.00;;;;;;2073416;28;20052;-72
2021/03/12 04:20:48;;;;;;;5.90;2.42;;;7.00;91.10;;;;;;2073548;28;20026;-74
2021/03/12 04:21:49;;;;;;;5.85;2.53;;;7.00;91.30;;;;;;2073469;28;20371;-74
2021/03/12 04:22:52;;;;;;;5.82;2.95;;;7.00;91.40;;;;;;2073692;28;20026;-73
2021/03/12 04:23:56;;;;;;;4.88;2.13;;;7.00;91.90;;;;;;2057074;28;20026;-74
2021/03/12 04:24:59;;;;;;;4.43;2.10;;;6.90;91.20;;;;;;2058110;28;20102;-74
2021/03/12 04:26:00;;;;;;;4.88;1.90;;;6.90;91.10;;;;;;2057801;28;20438;-74
2021/03/12 04:27:02;;;;;;;3.35;2.10;;;6.90;91.00;;;;;;2065759;28;20026;-74
2021/03/12 04:28:03;;;;;;;6.20;2.40;;;6.90;91.20;;;;;;2073726;28;20075;-73
2021/03/12 04:29:05;;;;;;;5.10;2.47;;;6.80;91.40;;;;;;2073604;28;20036;-73
2021/03/12 04:30:09;;;;;;;5.47;2.50;;;6.80;91.80;;;;;;2073618;28;20033;-74
2021/03/12 04:31:11;;;;;;;5.20;2.40;;;6.80;91.60;;;;;;2065177;28;20030;-74
2021/03/12 04:32:15;;;;;;;5.80;2.40;;;6.70;91.60;;;;;;2065649;28;20014;-74
2021/03/12 04:33:17;;;;;;;4.75;2.38;;;6.70;91.60;;;;;;2065143;28;20023;-73
2021/03/12 04:34:25;;;;;;;5.57;2.58;;;6.60;91.50;;;;;;2058460;28;20034;-74
2021/03/12 04:35:27;;;;;;;4.93;2.40;;;6.60;91.50;;;;;;2067649;28;20030;-74
2021/03/12 04:36:31;;;;;;;4.97;2.28;;;6.60;91.70;;;;;;2067411;28;20622;-74
2021/03/12 04:37:36;;;;;;;5.20;2.28;;;6.60;91.90;;;;;;2059058;28;20027;-74
2021/03/12 04:38:42;;;;;;;7.57;2.55;;;6.60;92.10;;;;;;2065737;28;20702;-74
2021/03/12 04:39:45;;;;;;;6.97;2.60;;;6.60;92.30;;;;;;2073410;28;20127;-74
2021/03/12 04:40:51;;;;;;;6.32;2.30;;;6.60;92.20;;;;;;2065302;28;20027;-74
2021/03/12 04:41:54;;;;;;;6.78;2.80;;;6.50;91.90;;;;;;2057731;28;20438;-73
2021/03/12 04:43:01;;;;;;;5.43;2.50;;;6.50;92.00;;;;;;2057996;28;20141;-74
2021/03/12 04:44:04;;;;;;;5.45;2.55;;;6.50;92.00;;;;;;2057169;28;20031;-74
2021/03/12 04:45:08;;;;;;;5.43;2.70;;;6.50;92.00;;;;;;2057724;28;20027;-74
2021/03/12 04:46:13;;;;;;;6.95;2.83;;;6.50;91.90;;;;;;2058226;28;20027;-74
2021/03/12 04:47:20;;;;;;;5.30;2.60;;;6.50;92.30;;;;;;2058135;28;20034;-74
2021/03/12 04:48:23;;;;;;;6.45;1.98;;;6.50;91.50;;;;;;2057857;28;20022;-74
2021/03/12 04:49:25;;;;;;;8.07;2.40;;;6.50;90.80;;;;;;2057456;28;20034;-74
2021/03/12 04:50:28;;;;;;;5.00;2.15;;;6.50;90.50;;;;;;2065724;28;20105;-72
2021/03/12 04:51:31;;;;;;;5.18;2.03;;;6.60;90.80;;;;;;2058162;28;20030;-74
2021/03/12 04:52:36;;;;;;;4.25;1.90;;;6.60;90.80;;;;;;2058043;28;20023;-74
2021/03/12 04:53:40;;;;;;;3.67;1.90;;;6.60;90.20;;;;;;2065461;28;20077;-74
2021/03/12 04:54:41;;;;;;;3.83;1.70;;;6.60;90.40;;;;;;2065251;28;20022;-73
2021/03/12 04:55:43;;;;;;;3.63;1.90;;;6.60;89.60;;;;;;2065538;28;20026;-72
2021/03/12 04:56:48;;;;;;;2.83;1.70;;;6.60;89.50;;;;;;2072781;28;20092;-73
2021/03/12 04:57:49;;;;;;;3.38;1.60;;;6.70;89.90;;;;;;2065310;28;20464;-74
2021/03/12 04:58:51;;;;;;;2.60;1.63;;;6.60;90.00;;;;;;2065595;28;20494;-71
2021/03/12 04:59:56;;;;;;;5.38;2.00;;;6.70;90.00;;;;;;2066064;28;20463;-74
2021/03/12 05:00:57;;;;;;;2.63;1.50;;;6.60;89.30;;;;;;2073051;28;20112;-73
2021/03/12 05:01:58;;;;;;;4.85;1.60;;;6.70;88.70;;;;;;2073763;28;20037;-73
2021/03/12 05:03:00;;;;;;;6.32;1.80;;;6.70;88.80;;;;;;2073482;28;20106;-74
2021/03/12 05:04:05;;;;;;;3.30;1.67;;;6.70;87.30;;;;;;2072989;28;20029;-74
2021/03/12 05:05:08;;;;;;;5.13;1.77;;;6.70;88.30;;;;;;2073472;28;20378;-72
2021/03/12 05:06:09;;;;;;;3.97;1.73;;;6.70;88.70;;;;;;2065473;28;20030;-73
2021/03/12 05:07:13;;;;;;;3.97;1.75;;;6.70;88.30;;;;;;2065219;28;20556;-73
2021/03/12 05:08:31;;;;;;;4.82;1.77;;;6.70;87.70;;;;;;2059415;28;20118;-74
2021/03/12 05:09:40;;;;;;;5.03;1.75;;;6.80;88.00;;;;;;2066309;28;20545;-72
2021/03/12 05:11:07;;;;;;;3.85;1.58;;;6.80;88.60;;;;;;2073113;28;20058;-72
2021/03/12 05:12:15;;;;;;;5.85;1.70;;;6.70;87.90;;;;;;2065485;28;20036;-73
2021/03/12 05:13:17;;;;;;;3.90;1.60;;;6.80;88.30;;;;;;2057049;28;20034;-73
2021/03/12 05:14:19;;;;;;;4.25;1.75;;;6.70;87.70;;;;;;2065348;28;20034;-74
2021/03/12 05:15:21;;;;;;;3.45;1.35;;;6.70;87.90;;;;;;2065370;28;20809;-73
2021/03/12 05:16:23;;;;;;;6.00;1.70;;;6.70;87.00;;;;;;2057571;28;20085;-74
2021/03/12 05:17:24;;;;;;;5.32;1.83;;;6.70;86.10;;;;;;2057478;28;20027;-73
2021/03/12 05:18:26;;;;;;;4.35;1.70;;;6.80;86.70;;;;;;2057405;28;20027;-74
2021/03/12 05:19:29;;;;;;;3.75;1.70;;;6.80;86.70;;;;;;2065316;28;20023;-74
2021/03/12 05:20:32;;;;;;;5.60;1.70;;;6.80;87.30;;;;;;2065343;28;20493;-71
2021/03/12 05:21:33;;;;;;;4.97;1.60;;;6.80;87.10;;;;;;2056934;28;20034;-71
2021/03/12 05:22:36;;;;;;;4.38;1.88;;;6.80;87.10;;;;;;2050037;28;20026;-75
2021/03/12 05:23:37;;;;;;;4.10;1.55;;;6.80;87.80;;;;;;2064926;28;20405;-72
2021/03/12 05:24:38;;;;;;;3.00;1.63;;;6.80;87.50;;;;;;2064995;28;20048;-72
2021/03/12 05:25:39;;;;;;;3.25;1.60;;;6.80;86.80;;;;;;2057578;28;20031;-74
2021/03/12 05:26:40;;;;;;;4.97;1.75;;;6.80;86.90;;;;;;2057587;28;20065;-72
2021/03/12 05:27:45;;;;;;;3.28;1.70;;;6.80;87.30;;;;;;2065672;28;20588;-71
2021/03/12 05:28:45;;;;;;;3.28;1.80;;;6.80;87.80;;;;;;2073439;28;20076;-72
2021/03/12 05:29:46;;;;;;;3.40;1.75;;;6.80;88.00;;;;;;2065133;28;20104;-72
2021/03/12 05:30:47;;;;;;;5.53;1.63;;;6.80;87.70;;;;;;2064814;28;20033;-71
2021/03/12 05:31:47;;;;;;;4.45;1.60;;;6.80;87.10;;;;;;2065093;28;20034;-72
2021/03/12 05:32:48;;;;;;;5.20;1.60;;;6.80;86.70;;;;;;2065965;28;20054;-72
2021/03/12 05:33:52;;;;;;;3.25;1.55;;;6.80;85.70;;;;;;2072596;28;20104;-72
2021/03/12 05:34:54;;;;;;;2.90;1.42;;;6.80;85.20;;;;;;2065167;28;20113;-74
2021/03/12 05:35:59;;;;;;;2.95;1.38;;;6.80;85.20;;;;;;2065902;28;20026;-72
2021/03/12 05:37:00;;;;;;;3.85;1.65;;;6.80;85.50;;;;;;2065113;28;20061;-72
2021/03/12 05:38:01;;;;;;;3.22;1.45;;;6.80;86.00;;;;;;2056983;28;20046;-73
2021/03/12 05:39:08;;;;;;;2.05;1.23;;;6.80;86.10;;;;;;2065380;28;20022;-73
2021/03/12 05:40:09;;;;;;;2.80;1.40;;;6.80;86.00;;;;;;2073197;28;20026;-73
2021/03/12 05:41:15;;;;;;;4.28;1.55;;;6.80;85.70;;;;;;2064265;28;20024;-73